Air Navigation Services of Czech Republic
Airport: LKKV Updated:  22.11.2017 10:36:05  UTC
 METAR LKKV 22.11. 10:30 ...
METAR LKKV 221030Z 25010KT 220V290 9999 BKN015 06/04 Q1011 RMK REG QNH 1009=
 TAF LKKV 22.11. 05:00 ...
TAF LKKV 220500Z 2206/2312 25010KT 9999 BKN012      TEMPO 2206/2208 24008G18KT 5000 BR BKN007      BECMG 2208/2210 CAVOK      BECMG 2215/2218 VRB02KT=